Ogdensburg, New Jersey
Current Conditions -  °F | °C
As of 5:20 AM on Wednesday 22 Oct 2014 (Local Time) from KFWN Reporting Station
Light Rain Light Rain  
Wind Chill: 12°   Ceiling: 900
Heat Index: 12°   Visibility: 6mi
Dew Point: 10°   Wind: 9mph
Humidity: 86%   Direction: 40°NE
Pressure: 29.93"   Gusts: NA
Location:  41.08°N, 74.59°W
Report Text: KFWN 220920Z AUTO 04008KT 6SM -RA BR OVC009 12/10 A2993 RMK AO2 CIG 006V012 P0002 T01220100
Loading
Personal Weather Stations






























Interactive Weather Map
Tropical Storm Tracking
New forecast layout! Learn more

10-Day Weather Forecast

Advertisements
Track Severe Weather on mobile